Time;durP1;ratioP1;P1;durP2;ratioP2;P2;SDS_P1;SDS_P2;PMS_P1;PMS_P2;Temp;Humidity;BMP_temperature;BMP_pressure;BME280_temperature;BME280_humidity;BME280_pressure;Samples;Min_cycle;Max_cycle;Signal;HPM_P1;HPM_P2
2022/01/16 00:05:40;0.00;0.00;0.62;0.00;0.00;0.62;1.60;0.90;;;22.30;29.30;;;;;;2241206;62;20379;-60
2022/01/16 00:08:25;0.00;0.00;0.62;0.00;0.00;0.62;1.40;0.80;;;22.30;29.30;;;;;;2240587;58;20713;-61
2022/01/16 00:11:11;0.00;0.00;0.62;0.00;0.00;0.62;1.57;1.10;;;22.30;29.30;;;;;;2258173;59;20431;-63
2022/01/16 00:13:56;0.00;0.00;0.62;0.00;0.00;0.62;2.33;1.00;;;22.30;29.30;;;;;;2245270;62;20489;-62
2022/01/16 00:16:40;0.00;0.00;0.62;0.00;0.00;0.62;2.57;1.13;;;22.30;29.20;;;;;;2266742;62;20594;-61
2022/01/16 00:19:26;0.00;0.00;0.62;0.00;0.00;0.62;2.67;1.27;;;22.30;29.20;;;;;;2241087;62;20379;-62
2022/01/16 00:22:14;0.00;0.00;0.62;0.00;0.00;0.62;3.00;1.23;;;22.30;29.20;;;;;;2268533;58;20408;-61
2022/01/16 00:25:02;0.00;0.00;0.62;0.00;0.00;0.62;1.80;1.13;;;22.30;29.30;;;;;;2231777;62;20409;-61
2022/01/16 00:27:47;0.00;0.00;0.62;0.00;0.00;0.62;2.63;1.20;;;22.30;29.30;;;;;;2245950;62;20619;-62
2022/01/16 00:30:32;0.00;0.00;0.62;0.00;0.00;0.62;1.70;1.07;;;22.30;29.30;;;;;;2232669;62;20467;-62
2022/01/16 00:33:18;0.00;0.00;0.62;0.00;0.00;0.62;1.63;1.10;;;22.30;29.30;;;;;;2249486;62;20367;-63
2022/01/16 00:36:04;0.00;0.00;0.62;0.00;0.00;0.62;1.77;1.20;;;22.30;29.30;;;;;;2233013;62;20416;-64
2022/01/16 00:38:52;0.00;0.00;0.62;0.00;0.00;0.62;1.57;1.07;;;22.30;29.30;;;;;;2233993;58;20601;-64
2022/01/16 00:41:37;0.00;0.00;0.62;0.00;0.00;0.62;3.50;1.10;;;22.30;29.30;;;;;;2232603;62;20447;-64
2022/01/16 00:44:22;0.00;0.00;0.62;0.00;0.00;0.62;3.10;1.10;;;22.30;29.30;;;;;;2251004;62;20417;-61
2022/01/16 00:47:06;0.00;0.00;0.62;0.00;0.00;0.62;1.90;1.20;;;22.30;29.30;;;;;;2235365;62;20628;-62
2022/01/16 00:49:51;0.00;0.00;0.62;0.00;0.00;0.62;2.70;1.30;;;22.30;29.30;;;;;;2236555;62;20421;-63
2022/01/16 00:52:37;0.00;0.00;0.62;0.00;0.00;0.62;2.07;1.10;;;22.30;29.30;;;;;;2238474;62;20428;-62
2022/01/16 00:55:22;0.00;0.00;0.62;0.00;0.00;0.62;1.60;1.00;;;22.20;29.20;;;;;;2242011;58;20452;-60
2022/01/16 00:58:08;0.00;0.00;0.62;0.00;0.00;0.62;1.60;1.10;;;22.30;29.30;;;;;;2245383;62;20457;-64
2022/01/16 01:00:53;0.00;0.00;0.62;0.00;0.00;0.62;1.77;1.00;;;22.20;29.20;;;;;;2240625;62;20435;-64
2022/01/16 01:03:38;0.00;0.00;0.62;0.00;0.00;0.62;3.73;1.20;;;22.30;29.30;;;;;;2232840;62;20408;-64
2022/01/16 01:06:23;0.00;0.00;0.62;0.00;0.00;0.62;1.40;0.90;;;22.20;29.30;;;;;;2240621;62;20368;-62
2022/01/16 01:09:09;0.00;0.00;0.62;0.00;0.00;0.62;1.40;0.80;;;22.30;29.30;;;;;;2232987;62;20432;-63
2022/01/16 01:11:53;0.00;0.00;0.62;0.00;0.00;0.62;2.03;1.27;;;22.20;29.30;;;;;;2232530;58;20388;-60
2022/01/16 01:14:53;0.00;0.00;0.62;0.00;0.00;0.62;1.60;1.10;;;22.30;29.40;;;;;;2234673;62;20375;-61
2022/01/16 01:17:47;0.00;0.00;0.62;0.00;0.00;0.62;1.70;1.20;;;22.20;29.30;;;;;;2241621;59;20452;-60
2022/01/16 01:20:31;0.00;0.00;0.62;0.00;0.00;0.62;1.60;0.93;;;22.20;29.40;;;;;;2258755;62;20380;-60
2022/01/16 01:23:17;0.00;0.00;0.62;0.00;0.00;0.62;2.60;1.00;;;22.20;29.40;;;;;;2232967;62;20412;-62
2022/01/16 01:26:03;0.00;0.00;0.62;0.00;0.00;0.62;1.83;1.10;;;22.30;29.40;;;;;;2234897;62;20416;-61
2022/01/16 01:28:47;0.00;0.00;0.62;0.00;0.00;0.62;1.73;1.00;;;22.20;29.40;;;;;;2246062;58;20381;-60
2022/01/16 01:31:32;0.00;0.00;0.62;0.00;0.00;0.62;1.60;1.00;;;22.20;29.40;;;;;;2233635;62;20395;-60
2022/01/16 01:34:16;0.00;0.00;0.62;0.00;0.00;0.62;1.57;1.30;;;22.20;29.40;;;;;;2249630;62;20453;-61
2022/01/16 01:37:01;0.00;0.00;0.62;0.00;0.00;0.62;2.00;1.40;;;22.20;29.40;;;;;;2234359;62;20601;-61
2022/01/16 01:39:45;0.00;0.00;0.62;0.00;0.00;0.62;2.63;2.40;;;22.20;29.30;;;;;;2235935;62;20461;-60
2022/01/16 01:42:34;0.00;0.00;0.62;0.00;0.00;0.62;2.50;2.13;;;22.20;29.80;;;;;;2239555;62;20407;-60
2022/01/16 01:51:46;0.00;0.00;0.62;0.00;0.00;0.62;3.43;2.00;;;22.20;28.90;;;;;;2235734;59;20412;-60
2022/01/16 01:54:31;0.00;0.00;0.62;0.00;0.00;0.62;2.40;2.20;;;22.10;28.80;;;;;;2244294;62;20376;-60
2022/01/16 01:57:15;0.00;0.00;0.62;0.00;0.00;0.62;3.70;2.93;;;22.10;28.70;;;;;;2233659;62;20396;-60
2022/01/16 02:00:03;0.00;0.00;0.62;0.00;0.00;0.62;3.40;2.83;;;22.10;28.50;;;;;;2250331;62;20368;-60
2022/01/16 02:03:13;0.00;0.00;0.62;0.00;0.00;0.62;3.30;3.00;;;22.00;28.30;;;;;;2240711;58;20399;-60
2022/01/16 02:05:58;0.00;0.00;0.62;0.00;0.00;0.62;3.20;2.90;;;22.00;28.20;;;;;;2242593;62;20364;-60
2022/01/16 02:08:44;0.00;0.00;0.62;0.00;0.00;0.62;2.93;2.50;;;22.00;28.10;;;;;;2258211;62;20768;-60
2022/01/16 02:11:32;0.00;0.00;0.62;0.00;0.00;0.62;2.97;2.67;;;21.90;28.00;;;;;;2239625;62;20388;-60
2022/01/16 02:14:47;0.00;0.00;0.62;0.00;0.00;0.62;2.60;2.40;;;21.90;28.10;;;;;;2238491;62;20416;-60
2022/01/16 02:32:49;0.00;0.00;0.62;0.00;0.00;0.62;3.63;2.93;;;21.60;27.70;;;;;;2241184;62;20624;-60
2022/01/16 02:35:34;0.00;0.00;0.62;0.00;0.00;0.62;3.37;2.83;;;21.70;27.80;;;;;;2233025;62;20364;-60
2022/01/16 02:38:20;0.00;0.00;0.62;0.00;0.00;0.62;2.90;2.50;;;21.60;27.70;;;;;;2236243;62;20385;-60
2022/01/16 02:41:06;0.00;0.00;0.62;0.00;0.00;0.62;3.60;2.57;;;21.60;27.70;;;;;;2232764;62;20465;-60
2022/01/16 02:43:52;0.00;0.00;0.62;0.00;0.00;0.62;2.40;2.03;;;21.50;27.80;;;;;;2233676;59;20524;-61
2022/01/16 02:46:36;0.00;0.00;0.62;0.00;0.00;0.62;2.20;2.00;;;21.50;27.90;;;;;;2232055;62;20407;-60
2022/01/16 02:49:23;0.00;0.00;0.62;0.00;0.00;0.62;3.60;1.60;;;21.50;28.00;;;;;;2253881;62;20440;-60
2022/01/16 02:52:11;0.00;0.00;0.62;0.00;0.00;0.62;2.20;1.60;;;21.50;28.10;;;;;;2232582;62;20395;-60
2022/01/16 02:54:57;0.00;0.00;0.62;0.00;0.00;0.62;2.03;1.63;;;21.50;28.10;;;;;;2237403;62;20743;-60
2022/01/16 02:57:43;0.00;0.00;0.62;0.00;0.00;0.62;2.60;2.00;;;21.50;28.10;;;;;;2234317;62;20421;-60
2022/01/16 03:00:28;0.00;0.00;0.62;0.00;0.00;0.62;2.33;1.87;;;21.50;28.20;;;;;;2234382;59;20380;-60
2022/01/16 03:03:12;0.00;0.00;0.62;0.00;0.00;0.62;2.60;1.90;;;21.50;28.20;;;;;;2237104;62;20453;-60
2022/01/16 03:05:57;0.00;0.00;0.62;0.00;0.00;0.62;2.60;2.30;;;21.50;28.20;;;;;;2256277;62;20604;-60
2022/01/16 03:08:42;0.00;0.00;0.62;0.00;0.00;0.62;2.30;2.10;;;21.50;28.20;;;;;;2240367;62;20624;-60
2022/01/16 03:11:35;0.00;0.00;0.62;0.00;0.00;0.62;2.67;2.23;;;21.50;28.10;;;;;;2233952;62;20509;-60
2022/01/16 03:14:21;0.00;0.00;0.62;0.00;0.00;0.62;2.40;2.20;;;21.50;28.10;;;;;;2232270;62;20380;-60
2022/01/16 03:17:07;0.00;0.00;0.62;0.00;0.00;0.62;2.60;2.07;;;21.40;28.00;;;;;;2235474;59;20372;-60
2022/01/16 03:22:56;0.00;0.00;0.62;0.00;0.00;0.62;2.23;2.00;;;21.40;28.00;;;;;;2233654;58;20436;-60
2022/01/16 03:25:40;0.00;0.00;0.62;0.00;0.00;0.62;2.50;2.07;;;21.40;28.10;;;;;;2238798;62;20356;-61
2022/01/16 03:28:25;0.00;0.00;0.62;0.00;0.00;0.62;2.57;1.97;;;21.40;28.00;;;;;;2237236;62;20466;-60
2022/01/16 03:31:11;0.00;0.00;0.62;0.00;0.00;0.62;2.00;1.70;;;21.40;28.00;;;;;;2238839;62;20435;-60
2022/01/16 03:33:56;0.00;0.00;0.62;0.00;0.00;0.62;2.20;1.50;;;21.40;28.00;;;;;;2234360;59;20462;-60
2022/01/16 03:36:40;0.00;0.00;0.62;0.00;0.00;0.62;3.77;2.30;;;21.40;28.00;;;;;;2232894;62;20395;-60
2022/01/16 03:39:25;0.00;0.00;0.62;0.00;0.00;0.62;2.10;1.73;;;21.40;28.00;;;;;;2237168;62;20384;-60
2022/01/16 03:42:10;0.00;0.00;0.62;0.00;0.00;0.62;3.27;2.10;;;21.40;28.00;;;;;;2250216;62;20423;-60
2022/01/16 03:44:54;0.00;0.00;0.62;0.00;0.00;0.62;2.27;1.97;;;21.30;28.00;;;;;;2233991;62;20497;-60
2022/01/16 03:47:41;0.00;0.00;0.62;0.00;0.00;0.62;2.50;2.30;;;21.30;27.90;;;;;;2233049;62;20457;-59
2022/01/16 03:50:26;0.00;0.00;0.62;0.00;0.00;0.62;2.33;1.77;;;21.30;28.00;;;;;;2237674;58;20436;-60
2022/01/16 03:53:10;0.00;0.00;0.62;0.00;0.00;0.62;1.90;1.60;;;21.30;28.00;;;;;;2232629;62;20665;-60
2022/01/16 03:55:55;0.00;0.00;0.62;0.00;0.00;0.62;2.30;2.00;;;21.30;28.00;;;;;;2236281;62;20367;-60
2022/01/16 03:58:39;0.00;0.00;0.62;0.00;0.00;0.62;2.10;1.80;;;21.30;28.00;;;;;;2235053;62;20364;-60
2022/01/16 04:01:25;0.00;0.00;0.62;0.00;0.00;0.62;2.33;2.07;;;21.30;28.00;;;;;;2257604;62;20472;-61
2022/01/16 04:04:11;0.00;0.00;0.62;0.00;0.00;0.62;2.43;2.23;;;21.30;28.00;;;;;;2241777;62;20579;-60
2022/01/16 04:06:56;0.00;0.00;0.62;0.00;0.00;0.62;2.80;2.50;;;21.20;27.90;;;;;;2273411;59;20392;-60
2022/01/16 04:09:41;0.00;0.00;0.62;0.00;0.00;0.62;2.73;2.40;;;21.20;27.90;;;;;;2255275;59;20442;-60
2022/01/16 04:12:25;0.00;0.00;0.62;0.00;0.00;0.62;2.87;2.33;;;21.20;27.90;;;;;;2236465;62;20400;-60
2022/01/16 04:17:59;0.00;0.00;0.62;0.00;0.00;0.62;2.63;2.43;;;21.20;27.90;;;;;;2234170;58;20399;-60
2022/01/16 04:20:45;0.00;0.00;0.62;0.00;0.00;0.62;2.43;2.10;;;21.20;27.90;;;;;;2246400;62;20432;-60
2022/01/16 04:23:29;0.00;0.00;0.62;0.00;0.00;0.62;2.80;2.30;;;21.20;27.90;;;;;;2233935;59;20400;-60
2022/01/16 04:26:14;0.00;0.00;0.62;0.00;0.00;0.62;2.77;2.57;;;21.20;27.90;;;;;;2235427;62;20387;-60
2022/01/16 04:28:59;0.00;0.00;0.62;0.00;0.00;0.62;3.13;2.80;;;21.20;27.90;;;;;;2232876;62;20862;-60
2022/01/16 04:31:43;0.00;0.00;0.62;0.00;0.00;0.62;3.33;2.60;;;21.10;27.80;;;;;;2238852;62;20384;-61
2022/01/16 04:34:28;0.00;0.00;0.62;0.00;0.00;0.62;2.83;2.53;;;21.10;27.80;;;;;;2232806;62;20696;-60
2022/01/16 04:37:14;0.00;0.00;0.62;0.00;0.00;0.62;2.73;2.53;;;21.10;27.80;;;;;;2239234;62;20368;-60
2022/01/16 04:40:01;0.00;0.00;0.62;0.00;0.00;0.62;2.80;2.40;;;21.10;27.80;;;;;;2232285;62;20388;-60
2022/01/16 04:45:49;0.00;0.00;0.62;0.00;0.00;0.62;2.27;2.07;;;21.10;27.80;;;;;;2236920;62;20384;-60
2022/01/16 04:48:33;0.00;0.00;0.62;0.00;0.00;0.62;3.40;2.17;;;21.10;27.80;;;;;;2238246;62;20372;-60
2022/01/16 04:51:20;0.00;0.00;0.62;0.00;0.00;0.62;2.50;2.30;;;21.00;27.70;;;;;;2257462;62;20388;-60
2022/01/16 04:54:06;0.00;0.00;0.62;0.00;0.00;0.62;3.10;2.57;;;21.00;27.70;;;;;;2232595;62;20477;-60
2022/01/16 04:56:51;0.00;0.00;0.62;0.00;0.00;0.62;3.50;3.20;;;21.00;27.70;;;;;;2247963;59;20364;-60
2022/01/16 04:59:35;0.00;0.00;0.62;0.00;0.00;0.62;3.07;2.77;;;21.00;27.70;;;;;;2241462;62;20380;-60
2022/01/16 05:02:20;0.00;0.00;0.62;0.00;0.00;0.62;3.20;2.40;;;21.00;27.60;;;;;;2233175;62;20607;-60
2022/01/16 05:05:06;0.00;0.00;0.62;0.00;0.00;0.62;2.40;2.20;;;21.00;27.60;;;;;;2246171;62;20689;-60
2022/01/16 05:07:50;0.00;0.00;0.62;0.00;0.00;0.62;2.83;2.53;;;20.90;27.50;;;;;;2264643;62;20364;-60
2022/01/16 05:10:36;0.00;0.00;0.62;0.00;0.00;0.62;2.83;2.47;;;20.90;27.50;;;;;;2248955;62;20384;-60
2022/01/16 05:19:14;0.00;0.00;0.62;0.00;0.00;0.62;3.10;2.50;;;20.90;27.50;;;;;;2233761;58;20436;-60
2022/01/16 05:21:59;0.00;0.00;0.62;0.00;0.00;0.62;3.23;2.90;;;20.80;27.40;;;;;;2231421;62;20807;-60
2022/01/16 05:24:44;0.00;0.00;0.62;0.00;0.00;0.62;3.07;2.70;;;20.80;27.40;;;;;;2234184;62;20377;-60
2022/01/16 05:27:29;0.00;0.00;0.62;0.00;0.00;0.62;2.80;2.40;;;20.80;27.40;;;;;;2266482;62;20373;-60
2022/01/16 05:30:14;0.00;0.00;0.62;0.00;0.00;0.62;3.47;3.17;;;20.80;27.40;;;;;;2260767;58;20373;-60
2022/01/16 05:32:58;0.00;0.00;0.62;0.00;0.00;0.62;3.17;2.80;;;20.80;27.40;;;;;;2232906;62;20653;-60
2022/01/16 05:35:43;0.00;0.00;0.62;0.00;0.00;0.62;3.13;2.83;;;20.80;27.50;;;;;;2236720;62;20363;-60
2022/01/16 05:38:28;0.00;0.00;0.62;0.00;0.00;0.62;2.70;2.50;;;20.70;27.40;;;;;;2238936;62;20372;-59
2022/01/16 05:41:12;0.00;0.00;0.62;0.00;0.00;0.62;3.77;3.00;;;20.80;27.50;;;;;;2240482;62;20783;-59
2022/01/16 05:43:58;0.00;0.00;0.62;0.00;0.00;0.62;3.20;2.70;;;20.70;27.40;;;;;;2242533;62;20399;-61
2022/01/16 05:46:43;0.00;0.00;0.62;0.00;0.00;0.62;2.70;2.50;;;20.70;27.40;;;;;;2237251;58;20412;-61
2022/01/16 05:49:27;0.00;0.00;0.62;0.00;0.00;0.62;3.13;2.70;;;20.70;27.40;;;;;;2230436;62;20364;-61
2022/01/16 05:52:12;0.00;0.00;0.62;0.00;0.00;0.62;2.70;2.50;;;20.70;27.40;;;;;;2232214;62;20437;-62
2022/01/16 05:54:56;0.00;0.00;0.62;0.00;0.00;0.62;2.37;2.13;;;20.70;27.40;;;;;;2233062;62;20754;-61
2022/01/16 05:57:41;0.00;0.00;0.62;0.00;0.00;0.62;2.80;2.50;;;20.70;27.40;;;;;;2234324;62;20756;-61
2022/01/16 06:00:27;0.00;0.00;0.62;0.00;0.00;0.62;2.83;2.50;;;20.70;27.40;;;;;;2235478;62;20392;-61
2022/01/16 06:03:12;0.00;0.00;0.62;0.00;0.00;0.62;2.40;1.97;;;20.60;27.30;;;;;;2242097;59;20399;-61
2022/01/16 06:05:57;0.00;0.00;0.62;0.00;0.00;0.62;3.20;2.60;;;20.60;27.30;;;;;;2242631;62;20436;-60
2022/01/16 06:08:43;0.00;0.00;0.62;0.00;0.00;0.62;3.17;2.60;;;20.60;27.40;;;;;;2241676;62;20525;-61
2022/01/16 06:11:27;0.00;0.00;0.62;0.00;0.00;0.62;2.50;2.20;;;20.60;27.40;;;;;;2257584;62;20421;-61
2022/01/16 06:14:12;0.00;0.00;0.62;0.00;0.00;0.62;4.57;2.47;;;20.60;27.40;;;;;;2234182;62;20460;-61
2022/01/16 06:16:58;0.00;0.00;0.62;0.00;0.00;0.62;2.83;2.47;;;20.60;27.40;;;;;;2233326;62;20428;-60
2022/01/16 06:19:42;0.00;0.00;0.62;0.00;0.00;0.62;2.73;2.53;;;20.60;27.40;;;;;;2232472;59;20367;-60
2022/01/16 06:22:27;0.00;0.00;0.62;0.00;0.00;0.62;3.53;2.63;;;20.60;27.40;;;;;;2235843;62;20407;-60
2022/01/16 06:25:13;0.00;0.00;0.62;0.00;0.00;0.62;2.93;2.63;;;20.60;27.40;;;;;;2250607;62;20744;-61
2022/01/16 06:27:58;0.00;0.00;0.62;0.00;0.00;0.62;2.50;2.20;;;20.60;27.40;;;;;;2232969;62;20372;-61
2022/01/16 06:30:42;0.00;0.00;0.62;0.00;0.00;0.62;2.67;2.33;;;20.60;27.40;;;;;;2234539;62;20428;-60
2022/01/16 06:33:28;0.00;0.00;0.62;0.00;0.00;0.62;2.17;1.97;;;20.50;27.30;;;;;;2237267;62;20627;-60
2022/01/16 06:36:13;0.00;0.00;0.62;0.00;0.00;0.62;2.30;1.90;;;20.50;27.40;;;;;;2243887;59;20752;-61
2022/01/16 06:38:57;0.00;0.00;0.62;0.00;0.00;0.62;2.07;1.87;;;20.50;27.40;;;;;;2239820;62;20461;-61
2022/01/16 06:41:42;0.00;0.00;0.62;0.00;0.00;0.62;3.20;2.40;;;20.50;27.30;;;;;;2241282;62;20429;-60
2022/01/16 06:44:26;0.00;0.00;0.62;0.00;0.00;0.62;2.87;2.30;;;20.50;27.40;;;;;;2236777;62;20388;-60
2022/01/16 06:47:11;0.00;0.00;0.62;0.00;0.00;0.62;3.30;3.00;;;20.50;27.30;;;;;;2233181;62;20380;-60
2022/01/16 06:49:57;0.00;0.00;0.62;0.00;0.00;0.62;3.10;2.80;;;20.40;27.20;;;;;;2267455;54;20408;-61
2022/01/16 06:52:41;0.00;0.00;0.62;0.00;0.00;0.62;4.63;3.43;;;20.40;27.00;;;;;;2306439;59;20375;-61
2022/01/16 06:55:26;0.00;0.00;0.62;0.00;0.00;0.62;3.40;2.90;;;20.40;26.90;;;;;;2234049;62;20749;-61
2022/01/16 06:58:10;0.00;0.00;0.62;0.00;0.00;0.62;3.90;3.50;;;20.40;26.90;;;;;;2318245;46;20791;-63
2022/01/16 07:00:55;0.00;0.00;0.62;0.00;0.00;0.62;4.00;3.60;;;20.30;26.80;;;;;;2237655;62;20393;-60
2022/01/16 07:03:40;0.00;0.00;0.62;0.00;0.00;0.62;4.03;3.63;;;20.30;26.80;;;;;;2240327;62;20388;-60
2022/01/16 07:06:26;0.00;0.00;0.62;0.00;0.00;0.62;4.10;3.70;;;20.30;26.80;;;;;;2232154;62;20652;-60
2022/01/16 07:09:10;0.00;0.00;0.62;0.00;0.00;0.62;4.27;3.60;;;20.30;26.80;;;;;;2255417;59;20470;-60
2022/01/16 07:11:54;0.00;0.00;0.62;0.00;0.00;0.62;4.00;3.60;;;20.20;26.70;;;;;;2235177;62;20493;-60
2022/01/16 07:14:39;0.00;0.00;0.62;0.00;0.00;0.62;4.57;3.83;;;20.20;26.70;;;;;;2249176;62;20360;-60
2022/01/16 07:17:24;0.00;0.00;0.62;0.00;0.00;0.62;5.47;4.40;;;20.20;26.70;;;;;;2232947;62;20389;-60
2022/01/16 07:20:11;0.00;0.00;0.62;0.00;0.00;0.62;6.47;5.60;;;20.10;26.70;;;;;;2235751;62;20376;-60
2022/01/16 07:22:57;0.00;0.00;0.62;0.00;0.00;0.62;6.43;4.97;;;20.10;26.70;;;;;;2233388;62;20436;-60
2022/01/16 07:25:43;0.00;0.00;0.62;0.00;0.00;0.62;6.73;5.53;;;20.10;26.70;;;;;;2273468;59;20400;-60
2022/01/16 07:28:28;0.00;0.00;0.62;0.00;0.00;0.62;7.80;5.60;;;20.00;26.60;;;;;;2233714;62;20383;-60
2022/01/16 07:31:13;0.00;0.00;0.62;0.00;0.00;0.62;6.63;5.67;;;20.00;26.60;;;;;;2234707;62;20636;-59
2022/01/16 07:33:58;0.00;0.00;0.62;0.00;0.00;0.62;7.80;5.97;;;19.90;26.50;;;;;;2237046;62;20452;-60
2022/01/16 07:36:43;0.00;0.00;0.62;0.00;0.00;0.62;8.00;6.97;;;19.90;26.50;;;;;;2237212;62;20356;-61
2022/01/16 07:39:29;0.00;0.00;0.62;0.00;0.00;0.62;9.67;7.70;;;19.90;26.50;;;;;;2241559;62;20555;-60
2022/01/16 07:42:14;0.00;0.00;0.62;0.00;0.00;0.62;9.00;6.43;;;19.90;26.50;;;;;;2231659;62;20793;-60
2022/01/16 07:44:59;0.00;0.00;0.62;0.00;0.00;0.62;9.70;7.30;;;19.80;26.50;;;;;;2245825;62;20395;-60
2022/01/16 07:47:43;0.00;0.00;0.62;0.00;0.00;0.62;12.03;8.70;;;19.80;26.50;;;;;;2235491;62;20384;-60
2022/01/16 07:50:28;0.00;0.00;0.62;0.00;0.00;0.62;11.93;8.07;;;19.70;26.40;;;;;;2232373;62;20603;-60
2022/01/16 07:53:12;0.00;0.00;0.62;0.00;0.00;0.62;17.20;9.70;;;19.70;26.40;;;;;;2234811;62;20401;-61
2022/01/16 07:55:58;0.00;0.00;0.62;0.00;0.00;0.62;12.10;9.47;;;19.70;26.40;;;;;;2233133;62;20716;-60
2022/01/16 07:58:43;0.00;0.00;0.62;0.00;0.00;0.62;16.17;11.10;;;19.60;26.30;;;;;;2232724;62;20391;-60
2022/01/16 08:01:27;0.00;0.00;0.62;0.00;0.00;0.62;13.47;10.27;;;19.60;26.20;;;;;;2239938;62;20465;-60
2022/01/16 08:04:12;0.00;0.00;0.62;0.00;0.00;0.62;13.63;10.07;;;19.50;26.10;;;;;;2242778;62;20539;-60
2022/01/16 08:06:56;0.00;0.00;0.62;0.00;0.00;0.62;14.90;10.03;;;19.50;26.30;;;;;;2258269;62;20588;-61
2022/01/16 08:09:41;0.00;0.00;0.62;0.00;0.00;0.62;13.03;11.10;;;19.40;26.20;;;;;;2242019;62;20367;-61
2022/01/16 08:12:27;0.00;0.00;0.62;0.00;0.00;0.62;16.33;10.60;;;19.40;26.20;;;;;;2234142;62;20400;-61
2022/01/16 08:15:12;0.00;0.00;0.62;0.00;0.00;0.62;13.97;10.40;;;19.40;26.20;;;;;;2253087;62;20388;-60
2022/01/16 08:17:57;0.00;0.00;0.62;0.00;0.00;0.62;13.00;10.20;;;19.30;26.10;;;;;;2233133;62;20501;-61
2022/01/16 08:20:41;0.00;0.00;0.62;0.00;0.00;0.62;15.80;11.37;;;19.30;26.10;;;;;;2233991;62;20397;-61
2022/01/16 08:23:26;0.00;0.00;0.62;0.00;0.00;0.62;15.30;10.37;;;19.30;26.10;;;;;;2234174;62;20812;-60
2022/01/16 08:26:10;0.00;0.00;0.62;0.00;0.00;0.62;14.17;11.17;;;19.20;26.00;;;;;;2235077;62;20459;-60
2022/01/16 08:28:56;0.00;0.00;0.62;0.00;0.00;0.62;14.53;11.47;;;19.20;26.10;;;;;;2238208;62;20766;-60
2022/01/16 08:31:40;0.00;0.00;0.62;0.00;0.00;0.62;15.00;11.40;;;19.20;26.00;;;;;;2256786;58;20420;-60
2022/01/16 08:34:25;0.00;0.00;0.62;0.00;0.00;0.62;13.07;10.43;;;19.20;26.00;;;;;;2232041;62;20392;-61
2022/01/16 08:37:10;0.00;0.00;0.62;0.00;0.00;0.62;15.07;11.17;;;19.10;26.20;;;;;;2233697;62;20511;-59
2022/01/16 08:39:54;0.00;0.00;0.62;0.00;0.00;0.62;17.00;13.10;;;19.10;26.20;;;;;;2244424;62;20600;-60
2022/01/16 08:42:40;0.00;0.00;0.62;0.00;0.00;0.62;17.77;12.47;;;19.10;26.00;;;;;;2255979;62;20404;-60
2022/01/16 08:45:26;0.00;0.00;0.62;0.00;0.00;0.62;16.83;11.43;;;19.00;25.90;;;;;;2265960;62;20630;-60
2022/01/16 08:48:11;0.00;0.00;0.62;0.00;0.00;0.62;19.43;13.77;;;18.90;25.90;;;;;;2232370;62;20408;-60
2022/01/16 08:50:56;0.00;0.00;0.62;0.00;0.00;0.62;17.67;12.87;;;18.90;25.90;;;;;;2248257;62;20805;-62
2022/01/16 08:53:40;0.00;0.00;0.62;0.00;0.00;0.62;16.60;12.77;;;18.90;26.10;;;;;;2233130;62;20408;-67
2022/01/16 08:56:25;0.00;0.00;0.62;0.00;0.00;0.62;17.73;12.37;;;18.90;26.30;;;;;;2237397;62;20444;-67
2022/01/16 08:59:10;0.00;0.00;0.62;0.00;0.00;0.62;14.47;12.23;;;18.80;26.40;;;;;;2241261;59;20642;-63
2022/01/16 09:01:56;0.00;0.00;0.62;0.00;0.00;0.62;17.30;13.10;;;18.80;26.50;;;;;;2232770;62;20427;-64
2022/01/16 09:04:40;0.00;0.00;0.62;0.00;0.00;0.62;16.53;12.33;;;18.80;26.50;;;;;;2246927;59;20369;-68
2022/01/16 09:07:25;0.00;0.00;0.62;0.00;0.00;0.62;16.77;11.90;;;18.80;27.00;;;;;;2241421;62;20376;-67
2022/01/16 09:10:10;0.00;0.00;0.62;0.00;0.00;0.62;18.80;13.70;;;18.70;26.50;;;;;;2256521;58;20420;-68
2022/01/16 09:12:55;0.00;0.00;0.62;0.00;0.00;0.62;14.30;11.40;;;18.80;27.10;;;;;;2233876;62;20441;-66
2022/01/16 09:15:40;0.00;0.00;0.62;0.00;0.00;0.62;18.27;13.40;;;18.80;26.60;;;;;;2283722;54;20443;-62
2022/01/16 09:18:26;0.00;0.00;0.62;0.00;0.00;0.62;16.63;13.50;;;18.70;26.60;;;;;;2265511;54;20748;-64
2022/01/16 09:21:10;0.00;0.00;0.62;0.00;0.00;0.62;16.20;12.40;;;18.70;26.60;;;;;;2235525;58;20580;-64
2022/01/16 09:23:55;0.00;0.00;0.62;0.00;0.00;0.62;15.50;12.50;;;18.70;26.60;;;;;;2231939;62;20801;-66
2022/01/16 09:26:40;0.00;0.00;0.62;0.00;0.00;0.62;16.80;13.17;;;18.70;26.70;;;;;;2250792;62;20774;-63
2022/01/16 09:29:24;0.00;0.00;0.62;0.00;0.00;0.62;17.80;12.90;;;18.70;26.70;;;;;;2236358;62;20389;-66
2022/01/16 09:32:11;0.00;0.00;0.62;0.00;0.00;0.62;19.10;13.60;;;18.70;26.60;;;;;;2232192;62;20444;-65
2022/01/16 09:34:57;0.00;0.00;0.62;0.00;0.00;0.62;18.13;13.43;;;18.70;26.60;;;;;;2237416;62;20604;-68
2022/01/16 09:37:43;0.00;0.00;0.62;0.00;0.00;0.62;14.27;12.30;;;18.70;26.70;;;;;;2231982;58;20381;-63
2022/01/16 09:40:28;0.00;0.00;0.62;0.00;0.00;0.62;16.77;13.60;;;18.70;26.70;;;;;;2242300;62;20371;-65
2022/01/16 09:43:13;0.00;0.00;0.62;0.00;0.00;0.62;17.07;12.60;;;18.70;26.70;;;;;;2233610;62;21021;-64
2022/01/16 09:45:57;0.00;0.00;0.62;0.00;0.00;0.62;16.63;12.57;;;18.70;26.80;;;;;;2243317;62;20372;-62
2022/01/16 09:48:43;0.00;0.00;0.62;0.00;0.00;0.62;17.63;14.27;;;18.70;26.70;;;;;;2230787;62;20437;-66
2022/01/16 09:51:30;0.00;0.00;0.62;0.00;0.00;0.62;16.37;13.07;;;18.70;26.60;;;;;;2233703;62;20614;-65
2022/01/16 09:54:14;0.00;0.00;0.62;0.00;0.00;0.62;16.70;12.97;;;18.60;26.60;;;;;;2233051;59;20701;-67
2022/01/16 09:56:59;0.00;0.00;0.62;0.00;0.00;0.62;18.67;14.07;;;18.60;26.60;;;;;;2234467;62;20380;-62
2022/01/16 09:59:45;0.00;0.00;0.62;0.00;0.00;0.62;19.57;14.23;;;18.60;26.60;;;;;;2252513;62;20744;-65
2022/01/16 10:02:30;0.00;0.00;0.62;0.00;0.00;0.62;16.30;13.33;;;18.60;26.60;;;;;;2236113;62;20403;-64
2022/01/16 10:05:25;0.00;0.00;0.62;0.00;0.00;0.62;17.30;14.33;;;18.60;26.70;;;;;;2236700;62;20392;-64
2022/01/16 10:08:24;0.00;0.00;0.62;0.00;0.00;0.62;17.13;13.20;;;18.60;26.70;;;;;;2242398;62;20578;-62
2022/01/16 10:11:31;0.00;0.00;0.62;0.00;0.00;0.62;17.00;14.20;;;18.60;26.70;;;;;;2243383;59;20424;-64
2022/01/16 10:14:22;0.00;0.00;0.62;0.00;0.00;0.62;14.57;11.93;;;18.60;26.70;;;;;;2275786;54;20389;-63
2022/01/16 10:17:11;0.00;0.00;0.62;0.00;0.00;0.62;11.67;10.10;;;18.60;26.80;;;;;;2233619;62;20377;-63
2022/01/16 10:20:04;0.00;0.00;0.62;0.00;0.00;0.62;14.40;11.37;;;18.60;26.90;;;;;;2231702;62;20413;-63
2022/01/16 10:22:53;0.00;0.00;0.62;0.00;0.00;0.62;12.07;9.50;;;18.60;26.90;;;;;;2232522;62;20403;-62
2022/01/16 10:25:43;0.00;0.00;0.62;0.00;0.00;0.62;11.20;9.27;;;18.60;27.00;;;;;;2239418;62;20368;-64
2022/01/16 10:28:28;0.00;0.00;0.62;0.00;0.00;0.62;11.53;9.23;;;18.70;27.10;;;;;;2231794;59;20392;-61
2022/01/16 10:31:20;0.00;0.00;0.62;0.00;0.00;0.62;10.60;8.80;;;18.70;27.20;;;;;;2231435;62;20829;-63
2022/01/16 10:34:23;0.00;0.00;0.62;0.00;0.00;0.62;9.60;7.87;;;18.70;27.30;;;;;;2242003;58;20440;-63
2022/01/16 10:37:25;0.00;0.00;0.62;0.00;0.00;0.62;8.80;7.90;;;18.80;27.40;;;;;;2254323;62;20367;-66
2022/01/16 10:40:14;0.00;0.00;0.62;0.00;0.00;0.62;9.30;7.20;;;18.80;27.20;;;;;;2230407;62;20752;-63
2022/01/16 10:43:05;0.00;0.00;0.62;0.00;0.00;0.62;10.00;7.57;;;18.90;27.50;;;;;;2250664;59;20411;-63
2022/01/16 10:45:59;0.00;0.00;0.62;0.00;0.00;0.62;8.53;7.10;;;18.90;27.50;;;;;;2231255;62;20584;-67
2022/01/16 10:48:43;0.00;0.00;0.62;0.00;0.00;0.62;7.27;6.10;;;19.00;27.50;;;;;;2231106;62;20372;-62
2022/01/16 10:51:31;0.00;0.00;0.62;0.00;0.00;0.62;8.23;6.67;;;19.00;27.50;;;;;;2287981;54;20391;-63
2022/01/16 10:54:31;0.00;0.00;0.62;0.00;0.00;0.62;7.70;6.33;;;19.10;27.50;;;;;;2233367;62;20588;-62
2022/01/16 10:57:22;0.00;0.00;0.62;0.00;0.00;0.62;9.47;7.77;;;19.10;27.50;;;;;;2231167;62;20408;-65
2022/01/16 11:00:12;0.00;0.00;0.62;0.00;0.00;0.62;7.20;5.90;;;19.20;27.60;;;;;;2244290;62;20709;-63
2022/01/16 11:03:02;0.00;0.00;0.62;0.00;0.00;0.62;7.67;6.00;;;19.20;27.60;;;;;;2240765;59;20468;-61
2022/01/16 11:05:49;0.00;0.00;0.62;0.00;0.00;0.62;6.73;5.83;;;19.20;27.60;;;;;;2243991;62;20360;-63
2022/01/16 11:08:34;0.00;0.00;0.62;0.00;0.00;0.62;8.37;5.83;;;19.30;27.60;;;;;;2230774;62;20388;-63
2022/01/16 11:11:22;0.00;0.00;0.62;0.00;0.00;0.62;7.57;6.30;;;19.30;27.60;;;;;;2232169;62;20456;-65
2022/01/16 11:14:07;0.00;0.00;0.62;0.00;0.00;0.62;6.47;5.83;;;19.30;27.60;;;;;;2240283;58;20747;-68
2022/01/16 11:16:54;0.00;0.00;0.62;0.00;0.00;0.62;6.73;6.10;;;19.30;27.60;;;;;;2233420;62;20436;-68
2022/01/16 11:19:39;0.00;0.00;0.62;0.00;0.00;0.62;6.03;4.80;;;19.40;27.70;;;;;;2251640;62;20376;-65
2022/01/16 11:22:34;0.00;0.00;0.62;0.00;0.00;0.62;6.17;5.20;;;19.50;27.80;;;;;;2231344;62;20447;-68
2022/01/16 11:25:30;0.00;0.00;0.62;0.00;0.00;0.62;6.50;5.33;;;19.50;27.80;;;;;;2231446;62;20380;-67
2022/01/16 11:28:18;0.00;0.00;0.62;0.00;0.00;0.62;6.60;5.87;;;19.50;27.80;;;;;;2235413;62;20380;-65
2022/01/16 11:31:05;0.00;0.00;0.62;0.00;0.00;0.62;6.33;5.30;;;19.50;27.70;;;;;;2233022;62;20392;-66
2022/01/16 11:33:51;0.00;0.00;0.62;0.00;0.00;0.62;5.20;4.70;;;19.50;27.70;;;;;;2244866;62;20401;-63